createdAt,value
2022-08-03T00:04:16.255Z,1.30
2022-08-03T00:09:19.750Z,1.50
2022-08-03T00:14:24.780Z,1.50
2022-08-03T00:19:28.362Z,1.33
2022-08-03T00:24:32.563Z,1.50
2022-08-03T00:29:59.565Z,1.60
2022-08-03T00:35:08.104Z,1.60
2022-08-03T00:40:14.711Z,1.50
2022-08-03T00:45:20.247Z,1.40
2022-08-03T00:50:25.231Z,1.40
2022-08-03T00:55:29.276Z,1.50
2022-08-03T01:00:39.002Z,1.40
2022-08-03T01:05:57.375Z,1.40
2022-08-03T01:11:08.100Z,1.70
2022-08-03T01:16:19.509Z,1.43
2022-08-03T01:21:28.132Z,1.40
2022-08-03T01:26:55.277Z,1.70
2022-08-03T01:32:53.391Z,1.30
2022-08-03T01:37:33.876Z,1.43
2022-08-03T01:42:43.358Z,1.40
2022-08-03T01:47:49.883Z,1.80
2022-08-03T01:52:54.979Z,1.60
2022-08-03T01:58:05.982Z,1.60
2022-08-03T02:03:15.138Z,1.73
2022-08-03T02:08:20.264Z,1.63
2022-08-03T02:13:24.719Z,1.73
2022-08-03T02:18:30.987Z,1.50
2022-08-03T02:23:34.479Z,1.67
2022-08-03T02:28:44.309Z,1.60
2022-08-03T02:33:52.787Z,1.50
2022-08-03T02:38:58.777Z,1.40
2022-08-03T02:44:08.944Z,1.70
2022-08-03T02:49:50.054Z,1.50
2022-08-03T02:54:43.196Z,1.60
2022-08-03T02:59:47.570Z,1.80
2022-08-03T03:05:52.072Z,1.60
2022-08-03T03:10:17.837Z,2.27
2022-08-03T03:15:21.440Z,1.83
2022-08-03T03:20:29.273Z,1.70
2022-08-03T03:25:35.268Z,1.60
2022-08-03T03:30:38.848Z,1.83
2022-08-03T03:35:45.826Z,1.70
2022-08-03T03:40:49.922Z,1.90
2022-08-03T03:45:54.325Z,2.00
2022-08-03T03:51:00.158Z,1.70
2022-08-03T03:56:03.662Z,1.63
2022-08-03T04:01:09.072Z,1.50
2022-08-03T04:06:32.109Z,1.93
2022-08-03T04:11:40.827Z,1.70
2022-08-03T04:16:50.355Z,1.73
2022-08-03T04:22:00.090Z,1.70
2022-08-03T04:27:08.634Z,2.10
2022-08-03T04:32:13.668Z,1.70
2022-08-03T04:37:30.266Z,1.80
2022-08-03T04:42:35.346Z,1.90
2022-08-03T04:47:40.263Z,1.80
2022-08-03T04:52:47.936Z,1.80
2022-08-03T04:57:51.400Z,2.10
2022-08-03T05:02:55.573Z,1.90
2022-08-03T05:08:06.679Z,2.00
2022-08-03T05:13:20.495Z,2.47
2022-08-03T05:18:26.694Z,1.90
2022-08-03T05:23:31.873Z,1.87
2022-08-03T05:28:35.329Z,1.83
2022-08-03T05:33:39.790Z,2.13
2022-08-03T05:38:48.156Z,2.13
2022-08-03T05:44:01.498Z,2.10
2022-08-03T05:49:07.372Z,2.10
2022-08-03T05:54:12.546Z,2.03
2022-08-03T05:59:37.116Z,2.00
2022-08-03T06:04:44.373Z,1.93
2022-08-03T06:10:34.042Z,2.40
2022-08-03T06:15:13.493Z,2.03
2022-08-03T06:20:19.450Z,2.10
2022-08-03T06:25:26.167Z,2.17
2022-08-03T06:30:29.662Z,2.00
2022-08-03T06:35:35.879Z,2.30
2022-08-03T06:40:43.866Z,2.10
2022-08-03T06:45:47.868Z,2.00
2022-08-03T06:50:51.343Z,1.90
2022-08-03T06:55:56.230Z,2.00
2022-08-03T07:00:59.743Z,2.13
2022-08-03T07:06:03.471Z,2.00
2022-08-03T07:11:08.858Z,2.07
2022-08-03T07:16:12.326Z,2.17
2022-08-03T07:21:17.417Z,2.10
2022-08-03T07:26:22.419Z,1.90
2022-08-03T07:31:27.757Z,1.73
2022-08-03T07:36:37.820Z,2.00
2022-08-03T07:41:43.316Z,2.00
2022-08-03T07:46:47.024Z,1.90
2022-08-03T07:52:10.525Z,2.13
2022-08-03T07:57:15.463Z,2.03
2022-08-03T08:02:20.347Z,1.90
2022-08-03T08:07:26.389Z,1.97
2022-08-03T08:12:34.264Z,1.77
2022-08-03T08:17:44.162Z,1.90
2022-08-03T08:22:49.907Z,1.80
2022-08-03T08:28:29.190Z,1.90
2022-08-03T08:33:23.049Z,1.90
2022-08-03T08:38:28.046Z,1.77
2022-08-03T08:43:33.043Z,1.90
2022-08-03T08:48:40.924Z,1.97
2022-08-03T08:53:50.976Z,1.90
2022-08-03T08:59:00.258Z,1.70
2022-08-03T09:04:09.984Z,1.87
2022-08-03T09:10:01.324Z,1.70
2022-08-03T09:14:49.682Z,1.90
2022-08-03T09:20:08.319Z,1.90
2022-08-03T09:25:25.039Z,1.70
2022-08-03T09:30:34.368Z,1.70
2022-08-03T09:35:57.848Z,1.80
2022-08-03T09:41:01.734Z,1.83
2022-08-03T09:46:10.096Z,1.65
2022-08-03T09:51:32.802Z,1.70
2022-08-03T09:56:47.013Z,1.50
2022-08-03T10:01:52.130Z,1.90
2022-08-03T10:07:09.663Z,1.70
2022-08-03T10:12:26.848Z,1.65
2022-08-03T10:17:32.166Z,2.00
2022-08-03T10:22:50.727Z,1.90
2022-08-03T10:27:57.007Z,1.80
2022-08-03T10:33:49.333Z,1.48
2022-08-03T10:38:48.180Z,1.70
2022-08-03T10:43:58.755Z,1.50
2022-08-03T10:49:07.466Z,1.80
2022-08-03T10:55:07.553Z,1.67
2022-08-03T11:00:16.007Z,1.30
2022-08-03T11:05:33.713Z,1.30
2022-08-03T11:11:00.674Z,1.27
2022-08-03T11:16:21.951Z,1.10
2022-08-03T11:21:54.804Z,1.35
2022-08-03T11:27:19.736Z,1.10
2022-08-03T11:33:01.193Z,1.40
2022-08-03T11:38:11.957Z,1.42
2022-08-03T11:43:46.596Z,1.45
2022-08-03T11:48:59.384Z,1.40
2022-08-03T11:54:08.444Z,1.40
2022-08-03T11:59:20.021Z,1.30
2022-08-03T12:04:25.075Z,1.17
2022-08-03T12:09:36.342Z,1.25
2022-08-03T12:14:48.540Z,1.80
2022-08-03T12:19:55.091Z,1.50
2022-08-03T12:25:00.073Z,1.13
2022-08-03T12:30:06.178Z,1.40
2022-08-03T12:35:10.549Z,1.58
2022-08-03T12:40:20.582Z,1.40
2022-08-03T12:45:28.049Z,1.30
2022-08-03T12:50:33.336Z,1.30
2022-08-03T12:56:04.593Z,1.40
2022-08-03T13:01:09.830Z,1.48
2022-08-03T13:06:18.036Z,1.60
2022-08-03T13:11:55.531Z,1.52
2022-08-03T13:16:51.765Z,1.48
2022-08-03T13:22:03.112Z,1.50
2022-08-03T13:28:11.075Z,1.50
2022-08-03T13:32:32.997Z,1.50
2022-08-03T13:37:36.726Z,1.30
2022-08-03T13:42:41.585Z,1.45
2022-08-03T13:47:45.072Z,1.52
2022-08-03T13:52:48.501Z,1.55
2022-08-03T13:58:05.035Z,1.65
2022-08-03T14:03:14.028Z,1.38
2022-08-03T14:08:18.458Z,1.50
2022-08-03T14:13:23.421Z,1.65
2022-08-03T14:18:27.605Z,1.50
2022-08-03T14:23:38.898Z,1.50
2022-08-03T14:28:43.849Z,1.50
2022-08-03T14:33:47.343Z,1.40
2022-08-03T14:38:50.952Z,1.50
2022-08-03T14:44:01.732Z,1.80
2022-08-03T14:50:38.588Z,1.60
2022-08-03T14:54:31.605Z,1.42
2022-08-03T14:59:55.888Z,1.50
2022-08-03T15:05:00.166Z,1.40
2022-08-03T15:10:03.830Z,1.27
2022-08-03T15:15:09.857Z,1.35
2022-08-03T15:20:17.031Z,1.58
2022-08-03T15:26:28.329Z,1.50
2022-08-03T15:30:45.713Z,1.50
2022-08-03T15:35:50.123Z,1.75
2022-08-03T15:40:54.858Z,1.70
2022-08-03T15:46:28.276Z,1.70
2022-08-03T15:51:23.596Z,1.45
2022-08-03T15:56:27.190Z,1.60
2022-08-03T16:01:33.090Z,1.67
2022-08-03T16:06:36.733Z,1.55
2022-08-03T16:11:40.246Z,1.70
2022-08-03T16:16:45.134Z,1.60
2022-08-03T16:21:50.449Z,1.52
2022-08-03T16:26:54.426Z,1.60
2022-08-03T16:31:59.395Z,1.42
2022-08-03T16:37:22.052Z,1.60
2022-08-03T16:42:26.971Z,1.77
2022-08-03T16:47:31.942Z,1.67
2022-08-03T16:52:36.936Z,1.65
2022-08-03T16:58:00.068Z,1.75
2022-08-03T17:03:18.979Z,1.50
2022-08-03T17:08:27.217Z,1.50
2022-08-03T17:13:39.148Z,1.40
2022-08-03T17:18:52.709Z,1.65
2022-08-03T17:24:05.513Z,1.50
2022-08-03T17:29:22.876Z,1.50
2022-08-03T17:34:28.145Z,1.58
2022-08-03T17:39:57.511Z,1.50
2022-08-03T17:44:58.314Z,1.60
2022-08-03T17:50:24.256Z,1.60
2022-08-03T17:55:57.429Z,1.50
2022-08-03T18:02:00.479Z,1.63
2022-08-03T18:06:56.591Z,1.48
2022-08-03T18:12:02.385Z,1.70
2022-08-03T18:17:10.299Z,1.88
2022-08-03T18:22:15.545Z,2.05
2022-08-03T18:27:21.834Z,1.73
2022-08-03T18:32:28.296Z,1.52
2022-08-03T18:37:52.180Z,1.33
2022-08-03T18:42:55.990Z,1.75
2022-08-03T18:48:07.562Z,1.98
2022-08-03T18:53:19.656Z,1.80
2022-08-03T18:58:36.011Z,2.03
2022-08-03T19:03:48.476Z,1.63
2022-08-03T19:08:57.948Z,2.10
2022-08-03T19:14:04.349Z,1.88
2022-08-03T19:19:14.513Z,1.88
2022-08-03T19:24:23.386Z,1.70
2022-08-03T19:29:59.458Z,1.77
2022-08-03T19:34:57.010Z,1.73
2022-08-03T19:40:05.389Z,2.00
2022-08-03T19:45:23.175Z,1.92
2022-08-03T19:50:47.447Z,1.75
2022-08-03T19:55:55.389Z,2.03
2022-08-03T20:00:59.849Z,2.17
2022-08-03T20:06:24.729Z,2.00
2022-08-03T20:11:30.754Z,1.77
2022-08-03T20:16:47.709Z,1.80
2022-08-03T20:21:55.588Z,1.93
2022-08-03T20:27:07.835Z,1.67
2022-08-03T20:32:11.946Z,1.70
2022-08-03T20:37:17.097Z,1.77
2022-08-03T20:42:23.878Z,1.90
2022-08-03T20:47:29.315Z,1.80
2022-08-03T20:52:34.734Z,2.23
2022-08-03T20:57:51.766Z,1.80
2022-08-03T21:02:55.762Z,1.87
2022-08-03T21:08:07.033Z,1.97
2022-08-03T21:18:27.335Z,2.23
2022-08-03T21:23:47.828Z,2.20
2022-08-03T21:28:58.160Z,2.20
2022-08-03T21:34:04.239Z,1.90
2022-08-03T21:39:10.815Z,2.00
2022-08-03T21:44:25.108Z,2.40
2022-08-03T21:50:07.142Z,2.13
2022-08-03T21:55:07.607Z,2.50
2022-08-03T22:00:16.573Z,2.37
2022-08-03T22:05:42.968Z,2.37
2022-08-03T22:10:49.329Z,2.17
2022-08-03T22:15:55.595Z,2.53
2022-08-03T22:21:00.752Z,2.33
2022-08-03T22:26:08.972Z,2.63
2022-08-03T22:37:35.303Z,2.30
2022-08-03T22:42:39.610Z,2.30
2022-08-03T22:47:45.036Z,2.53
2022-08-03T22:52:48.990Z,2.57
2022-08-03T22:57:56.014Z,2.20
2022-08-03T23:03:03.834Z,2.30
2022-08-03T23:08:10.359Z,2.40
2022-08-03T23:13:14.947Z,1.90
2022-08-03T23:18:22.775Z,2.30
2022-08-03T23:23:27.102Z,2.50
2022-08-03T23:28:33.182Z,2.10
2022-08-03T23:33:42.657Z,2.10
2022-08-03T23:38:47.718Z,2.20
2022-08-03T23:43:53.741Z,2.17
2022-08-03T23:49:00.459Z,1.90
2022-08-03T23:54:11.338Z,2.00
2022-08-03T23:59:34.093Z,2.00
